Eastabuchie, MS

8:44 PM CDT on July 31, 2014 (GMT -0500)
Hattiesburg-Laurel Regional (KPIB) Elev 299 ft | 31.47 °N, 89.34 °W | Change Station

Current weather conditions updated 9 minutes ago

Clear
Clear
73 °F
Feels Like 73 °F
N
0
Wind Variable Wind from North

Tomorrow is forecast to be Warmer than today. Showers ending by midday.

Today
High -- | Low -- °F
--% Chance of Precip.
Yesterday
High -- | Low -- °F
Precip. -- in
6:12 AM 7:53 PM
Waxing Crescent, 22% visible
Pressure 30.03 in
Visibility 10.0 miles
Clouds Clear
Dew Point 66 °F
Humidity 78%
Rainfall 0.00 in
Snow Depth Not available.
UV 0 out of 12
Pollen 4.00 out of 12
Air Quality Not available.
Flu Activity Not available.
METAR KPIB 010135Z AUTO 00000KT 10SM CLR 23/19 A3003 RMK AO1

More Conditions Fewer Conditions

Pressure 30.03 in
Visibility 10.0 miles
Clouds Clear
Dew Point 66 °F
Humidity 78%
Rainfall 0.00 in
Snow Depth Not available.
UV 0 out of 12
Pollen 4.00 out of 12
Air Quality Not available.
Flu Activity Not available.
METAR KPIB 010135Z AUTO 00000KT 10SM CLR 23/19 A3003 RMK AO1

More Conditions Fewer Conditions

10-Day Weather Forecast

Almanac

Astronomy

Jul. 31, 2014 Rise Set
Actual Time 6:12 AM CDT 7:53 PM CDT
Civil Twilight 5:46 AM CDT 8:20 PM CDT
Nautical Twilight 5:14 AM CDT 8:52 PM CDT
Astronomical Twilight 4:41 AM CDT 9:25 PM CDT
Moon 10:20 AM CDT (7/31) 10:28 PM CDT (7/31)
Length of Visible Light 14h 33m
Length of Day
13h 40m
Tomorrow will be 1m 25s shorter.
Waxing Crescent, 22% of the Moon is Illuminated
Today
Waxing Crescent
Aug 3
First Quarter
Aug 10
Full
Aug 17
Last Quarter
Aug 25
New

Today's Extremes

State Highs State Lows

Community

WunderPhotos

Upload Photos

1,739,490 photos uploaded!

Nearby

Snow Depth

Station Depth Elevation
No new snow has been reported.

Earthquake Activity

City Distance Mag. Time & Date
No recent earthquake activity has been reported nearby.
Minimum magnitude displayed is 2.5.

Coastal Water Temperatures

Place Temperature
No Stations Reporting

Nearby Weather Stations

Station Location Temp. Heat Index Dew Point Humidity Wind Precip. Elev Updated Type
SANFORD / N5LRQ, Seminary, MS 75.7 °F 76 °F 69 °F 81% North  at  0.0 mph 0.00 in / hr 229 ft 8:43 PM CDT Normal
USM School of Polymers, Hattiesburg, MS 78.2 °F 80 °F 70 °F 75% NW  at  0.0 mph 0.00 in / hr 233 ft 8:43 PM CDT Normal
MegaGate Broadband, Hattiesburg, MS 78.2 °F 80 °F 66 °F 66% North  at  0.0 mph 0.00 in / hr 279 ft 8:44 PM CDT Rapid Fire
N5PA, Ellisville, MS 74.9 °F 75 °F 69 °F 82% WSW  at  0.0 mph 0.00 in / hr 271 ft 8:44 PM CDT Rapid Fire
West Hattiesburg, Hattiesburg, MS 76.1 °F 78 °F 66 °F 71% North  at  0.0 mph 0.00 in / hr 266 ft 8:44 PM CDT Rapid Fire
High Altitude Penguin, Hattiesburg, MS 75.2 °F 77 °F 65 °F 71% SE  at  0.0 mph 0.00 in / hr 279 ft 8:43 PM CDT Rapid Fire
RAWS RAGLAND HILLS MS, Hattiesburg, MS 77 °F 79 °F 66 °F 68% North  at  2 mph 0.00 in / hr 285 ft 7:27 PM CDT MADIS

Show More Stations Show Fewer Stations